sensor_id;sensor_type;location;lat;lon;timestamp;P1;durP1;ratioP1;P2;durP2;ratioP2
75603;SDS011;64187;51.010;13.792;2023-05-07T00:04:03;15.32;;;8.85;;
75603;SDS011;64187;51.010;13.792;2023-05-07T00:09:03;15.88;;;9.88;;
75603;SDS011;64187;51.010;13.792;2023-05-07T00:14:02;13.85;;;8.10;;
75603;SDS011;64187;51.010;13.792;2023-05-07T00:19:01;13.55;;;9.07;;
75603;SDS011;64187;51.010;13.792;2023-05-07T00:24:00;12.88;;;7.75;;
75603;SDS011;64187;51.010;13.792;2023-05-07T00:28:59;14.20;;;8.70;;
75603;SDS011;64187;51.010;13.792;2023-05-07T00:33:58;15.55;;;9.48;;
75603;SDS011;64187;51.010;13.792;2023-05-07T00:38:57;14.50;;;8.98;;
75603;SDS011;64187;51.010;13.792;2023-05-07T00:43:58;15.35;;;8.48;;
75603;SDS011;64187;51.010;13.792;2023-05-07T00:48:57;17.60;;;10.00;;
75603;SDS011;64187;51.010;13.792;2023-05-07T00:53:56;18.50;;;10.65;;
75603;SDS011;64187;51.010;13.792;2023-05-07T00:58:55;19.13;;;11.05;;
75603;SDS011;64187;51.010;13.792;2023-05-07T01:03:54;18.35;;;10.38;;
75603;SDS011;64187;51.010;13.792;2023-05-07T01:08:54;20.58;;;11.30;;
75603;SDS011;64187;51.010;13.792;2023-05-07T01:13:55;19.52;;;11.23;;
75603;SDS011;64187;51.010;13.792;2023-05-07T01:18:55;21.63;;;11.25;;
75603;SDS011;64187;51.010;13.792;2023-05-07T01:23:54;20.55;;;11.45;;
75603;SDS011;64187;51.010;13.792;2023-05-07T01:28:54;18.35;;;10.45;;
75603;SDS011;64187;51.010;13.792;2023-05-07T01:33:52;19.50;;;11.40;;
75603;SDS011;64187;51.010;13.792;2023-05-07T01:38:53;20.52;;;11.23;;
75603;SDS011;64187;51.010;13.792;2023-05-07T01:43:53;21.50;;;11.13;;
75603;SDS011;64187;51.010;13.792;2023-05-07T01:48:53;21.98;;;11.65;;
75603;SDS011;64187;51.010;13.792;2023-05-07T01:53:52;17.88;;;11.73;;
75603;SDS011;64187;51.010;13.792;2023-05-07T01:58:52;18.38;;;11.77;;
75603;SDS011;64187;51.010;13.792;2023-05-07T02:03:51;18.77;;;11.20;;
75603;SDS011;64187;51.010;13.792;2023-05-07T02:08:55;18.67;;;11.70;;
75603;SDS011;64187;51.010;13.792;2023-05-07T02:13:54;17.88;;;10.88;;
75603;SDS011;64187;51.010;13.792;2023-05-07T02:18:53;18.75;;;11.27;;
75603;SDS011;64187;51.010;13.792;2023-05-07T02:23:52;22.45;;;12.02;;
75603;SDS011;64187;51.010;13.792;2023-05-07T02:28:51;19.10;;;11.07;;
75603;SDS011;64187;51.010;13.792;2023-05-07T02:33:50;16.63;;;11.20;;
75603;SDS011;64187;51.010;13.792;2023-05-07T02:38:49;21.02;;;12.38;;
75603;SDS011;64187;51.010;13.792;2023-05-07T02:43:48;22.15;;;12.02;;
75603;SDS011;64187;51.010;13.792;2023-05-07T02:48:47;18.35;;;11.18;;
75603;SDS011;64187;51.010;13.792;2023-05-07T02:53:46;17.67;;;10.85;;
75603;SDS011;64187;51.010;13.792;2023-05-07T02:58:45;15.00;;;9.52;;
75603;SDS011;64187;51.010;13.792;2023-05-07T03:03:46;18.75;;;10.98;;
75603;SDS011;64187;51.010;13.792;2023-05-07T03:08:45;13.27;;;8.95;;
75603;SDS011;64187;51.010;13.792;2023-05-07T03:13:44;13.57;;;8.95;;
75603;SDS011;64187;51.010;13.792;2023-05-07T03:18:43;13.57;;;8.20;;
75603;SDS011;64187;51.010;13.792;2023-05-07T03:23:42;12.23;;;7.30;;
75603;SDS011;64187;51.010;13.792;2023-05-07T03:28:41;10.52;;;6.35;;
75603;SDS011;64187;51.010;13.792;2023-05-07T03:33:50;9.95;;;6.22;;
75603;SDS011;64187;51.010;13.792;2023-05-07T03:38:52;12.57;;;6.82;;
75603;SDS011;64187;51.010;13.792;2023-05-07T03:43:55;10.20;;;6.95;;
75603;SDS011;64187;51.010;13.792;2023-05-07T03:48:54;12.52;;;7.18;;
75603;SDS011;64187;51.010;13.792;2023-05-07T03:53:53;12.23;;;7.25;;
75603;SDS011;64187;51.010;13.792;2023-05-07T03:58:53;14.68;;;7.63;;
75603;SDS011;64187;51.010;13.792;2023-05-07T04:03:52;13.82;;;8.38;;
75603;SDS011;64187;51.010;13.792;2023-05-07T04:08:52;15.55;;;8.43;;
75603;SDS011;64187;51.010;13.792;2023-05-07T04:13:51;13.85;;;8.48;;
75603;SDS011;64187;51.010;13.792;2023-05-07T04:18:53;15.70;;;8.35;;
75603;SDS011;64187;51.010;13.792;2023-05-07T04:23:52;15.07;;;7.95;;
75603;SDS011;64187;51.010;13.792;2023-05-07T04:28:51;18.15;;;8.50;;
75603;SDS011;64187;51.010;13.792;2023-05-07T04:33:51;14.65;;;8.07;;
75603;SDS011;64187;51.010;13.792;2023-05-07T04:38:50;15.98;;;9.00;;
75603;SDS011;64187;51.010;13.792;2023-05-07T04:43:51;12.43;;;8.48;;
75603;SDS011;64187;51.010;13.792;2023-05-07T04:48:53;12.88;;;8.30;;
75603;SDS011;64187;51.010;13.792;2023-05-07T04:53:52;12.30;;;6.80;;
75603;SDS011;64187;51.010;13.792;2023-05-07T04:58:51;12.75;;;6.88;;
75603;SDS011;64187;51.010;13.792;2023-05-07T05:03:52;12.80;;;6.80;;
75603;SDS011;64187;51.010;13.792;2023-05-07T05:08:52;15.63;;;8.77;;
75603;SDS011;64187;51.010;13.792;2023-05-07T05:13:51;12.40;;;7.55;;
75603;SDS011;64187;51.010;13.792;2023-05-07T05:18:52;11.80;;;7.30;;
75603;SDS011;64187;51.010;13.792;2023-05-07T05:23:52;13.60;;;8.05;;
75603;SDS011;64187;51.010;13.792;2023-05-07T05:28:55;20.60;;;11.57;;
75603;SDS011;64187;51.010;13.792;2023-05-07T05:33:55;15.18;;;8.38;;
75603;SDS011;64187;51.010;13.792;2023-05-07T05:38:55;15.68;;;8.82;;
75603;SDS011;64187;51.010;13.792;2023-05-07T05:43:54;15.40;;;9.15;;
75603;SDS011;64187;51.010;13.792;2023-05-07T05:48:53;15.60;;;8.27;;
75603;SDS011;64187;51.010;13.792;2023-05-07T05:53:52;13.38;;;8.35;;
75603;SDS011;64187;51.010;13.792;2023-05-07T05:58:51;13.65;;;7.97;;
75603;SDS011;64187;51.010;13.792;2023-05-07T06:03:50;14.60;;;8.45;;
75603;SDS011;64187;51.010;13.792;2023-05-07T06:08:49;13.07;;;7.28;;
75603;SDS011;64187;51.010;13.792;2023-05-07T06:13:53;11.05;;;6.95;;
75603;SDS011;64187;51.010;13.792;2023-05-07T06:18:52;8.85;;;5.63;;
75603;SDS011;64187;51.010;13.792;2023-05-07T06:23:51;11.85;;;6.30;;
75603;SDS011;64187;51.010;13.792;2023-05-07T06:28:51;11.07;;;6.47;;
75603;SDS011;64187;51.010;13.792;2023-05-07T06:33:50;8.82;;;5.93;;
75603;SDS011;64187;51.010;13.792;2023-05-07T06:38:50;10.02;;;5.03;;
75603;SDS011;64187;51.010;13.792;2023-05-07T06:43:49;8.80;;;5.22;;
75603;SDS011;64187;51.010;13.792;2023-05-07T06:49:04;7.90;;;5.40;;
75603;SDS011;64187;51.010;13.792;2023-05-07T06:54:03;8.90;;;5.00;;
75603;SDS011;64187;51.010;13.792;2023-05-07T06:59:04;7.65;;;4.85;;
75603;SDS011;64187;51.010;13.792;2023-05-07T07:04:09;9.38;;;5.22;;
75603;SDS011;64187;51.010;13.792;2023-05-07T07:09:10;8.20;;;5.07;;
75603;SDS011;64187;51.010;13.792;2023-05-07T07:14:09;11.70;;;5.93;;
75603;SDS011;64187;51.010;13.792;2023-05-07T07:19:15;8.77;;;5.60;;
75603;SDS011;64187;51.010;13.792;2023-05-07T07:24:16;9.13;;;5.85;;
75603;SDS011;64187;51.010;13.792;2023-05-07T07:29:23;9.27;;;5.20;;
75603;SDS011;64187;51.010;13.792;2023-05-07T07:34:24;9.27;;;5.60;;
75603;SDS011;64187;51.010;13.792;2023-05-07T07:39:23;6.22;;;4.13;;
75603;SDS011;64187;51.010;13.792;2023-05-07T07:44:26;6.95;;;5.03;;
75603;SDS011;64187;51.010;13.792;2023-05-07T07:49:30;6.22;;;4.50;;
75603;SDS011;64187;51.010;13.792;2023-05-07T07:54:33;6.20;;;3.90;;
75603;SDS011;64187;51.010;13.792;2023-05-07T07:59:33;4.78;;;3.60;;
75603;SDS011;64187;51.010;13.792;2023-05-07T08:04:32;5.65;;;3.40;;
75603;SDS011;64187;51.010;13.792;2023-05-07T08:09:35;6.82;;;3.75;;
75603;SDS011;64187;51.010;13.792;2023-05-07T08:14:35;7.18;;;4.38;;
75603;SDS011;64187;51.010;13.792;2023-05-07T08:19:37;4.65;;;3.55;;
75603;SDS011;64187;51.010;13.792;2023-05-07T08:24:39;4.30;;;3.38;;
75603;SDS011;64187;51.010;13.792;2023-05-07T08:29:39;4.28;;;3.45;;
75603;SDS011;64187;51.010;13.792;2023-05-07T08:34:38;3.97;;;3.15;;
75603;SDS011;64187;51.010;13.792;2023-05-07T08:39:38;6.57;;;3.63;;
75603;SDS011;64187;51.010;13.792;2023-05-07T08:44:45;3.38;;;3.08;;
75603;SDS011;64187;51.010;13.792;2023-05-07T08:49:47;4.32;;;3.40;;
75603;SDS011;64187;51.010;13.792;2023-05-07T08:54:47;4.53;;;3.33;;
75603;SDS011;64187;51.010;13.792;2023-05-07T08:59:47;5.82;;;4.22;;
75603;SDS011;64187;51.010;13.792;2023-05-07T09:04:46;6.63;;;4.90;;
75603;SDS011;64187;51.010;13.792;2023-05-07T09:09:45;5.95;;;4.22;;
75603;SDS011;64187;51.010;13.792;2023-05-07T09:14:45;6.20;;;4.35;;
75603;SDS011;64187;51.010;13.792;2023-05-07T09:19:45;6.40;;;4.28;;
75603;SDS011;64187;51.010;13.792;2023-05-07T09:24:49;5.80;;;4.25;;
75603;SDS011;64187;51.010;13.792;2023-05-07T09:29:52;7.40;;;4.90;;
75603;SDS011;64187;51.010;13.792;2023-05-07T09:34:51;6.18;;;4.85;;
75603;SDS011;64187;51.010;13.792;2023-05-07T09:39:54;7.20;;;5.32;;
75603;SDS011;64187;51.010;13.792;2023-05-07T09:44:55;7.05;;;4.53;;
75603;SDS011;64187;51.010;13.792;2023-05-07T09:49:58;5.20;;;4.18;;
75603;SDS011;64187;51.010;13.792;2023-05-07T09:55:00;5.40;;;3.80;;
75603;SDS011;64187;51.010;13.792;2023-05-07T10:00:02;6.80;;;4.88;;
75603;SDS011;64187;51.010;13.792;2023-05-07T10:10:19;5.43;;;4.32;;
75603;SDS011;64187;51.010;13.792;2023-05-07T10:15:19;6.45;;;4.43;;
75603;SDS011;64187;51.010;13.792;2023-05-07T10:20:22;5.28;;;3.92;;
75603;SDS011;64187;51.010;13.792;2023-05-07T10:25:25;6.70;;;5.00;;
75603;SDS011;64187;51.010;13.792;2023-05-07T10:36:05;7.45;;;4.82;;
75603;SDS011;64187;51.010;13.792;2023-05-07T10:41:05;5.43;;;4.35;;
75603;SDS011;64187;51.010;13.792;2023-05-07T10:46:09;7.30;;;4.85;;
75603;SDS011;64187;51.010;13.792;2023-05-07T10:51:28;5.97;;;4.55;;
75603;SDS011;64187;51.010;13.792;2023-05-07T10:56:37;8.23;;;5.43;;
75603;SDS011;64187;51.010;13.792;2023-05-07T11:01:49;6.28;;;5.13;;
75603;SDS011;64187;51.010;13.792;2023-05-07T11:07:21;6.20;;;4.65;;
75603;SDS011;64187;51.010;13.792;2023-05-07T11:17:56;7.07;;;5.07;;
75603;SDS011;64187;51.010;13.792;2023-05-07T11:23:00;5.53;;;4.40;;
75603;SDS011;64187;51.010;13.792;2023-05-07T11:28:14;6.63;;;4.43;;
75603;SDS011;64187;51.010;13.792;2023-05-07T11:33:20;5.13;;;4.50;;
75603;SDS011;64187;51.010;13.792;2023-05-07T11:38:24;5.75;;;4.68;;
75603;SDS011;64187;51.010;13.792;2023-05-07T11:43:23;7.72;;;4.90;;
75603;SDS011;64187;51.010;13.792;2023-05-07T11:48:22;6.15;;;5.10;;
75603;SDS011;64187;51.010;13.792;2023-05-07T11:53:24;6.30;;;4.82;;
75603;SDS011;64187;51.010;13.792;2023-05-07T11:58:24;7.07;;;5.22;;
75603;SDS011;64187;51.010;13.792;2023-05-07T12:03:26;5.20;;;4.53;;
75603;SDS011;64187;51.010;13.792;2023-05-07T12:08:29;6.53;;;4.80;;
75603;SDS011;64187;51.010;13.792;2023-05-07T12:13:28;7.60;;;4.65;;
75603;SDS011;64187;51.010;13.792;2023-05-07T12:18:27;7.20;;;4.75;;
75603;SDS011;64187;51.010;13.792;2023-05-07T12:23:26;5.95;;;4.97;;
75603;SDS011;64187;51.010;13.792;2023-05-07T12:28:25;6.97;;;5.10;;
75603;SDS011;64187;51.010;13.792;2023-05-07T12:33:24;8.02;;;5.68;;
75603;SDS011;64187;51.010;13.792;2023-05-07T12:38:24;7.80;;;5.30;;
75603;SDS011;64187;51.010;13.792;2023-05-07T12:43:24;7.82;;;5.07;;
75603;SDS011;64187;51.010;13.792;2023-05-07T12:48:25;6.07;;;4.82;;
75603;SDS011;64187;51.010;13.792;2023-05-07T12:53:26;5.97;;;4.50;;
75603;SDS011;64187;51.010;13.792;2023-05-07T13:03:30;6.20;;;5.10;;
75603;SDS011;64187;51.010;13.792;2023-05-07T13:08:35;5.82;;;5.20;;
75603;SDS011;64187;51.010;13.792;2023-05-07T13:13:36;6.55;;;5.35;;
75603;SDS011;64187;51.010;13.792;2023-05-07T13:18:38;5.90;;;4.70;;
75603;SDS011;64187;51.010;13.792;2023-05-07T13:23:37;5.70;;;4.43;;
75603;SDS011;64187;51.010;13.792;2023-05-07T13:28:37;6.00;;;5.03;;
75603;SDS011;64187;51.010;13.792;2023-05-07T13:33:35;5.10;;;4.30;;
75603;SDS011;64187;51.010;13.792;2023-05-07T13:38:34;5.32;;;4.82;;
75603;SDS011;64187;51.010;13.792;2023-05-07T13:43:33;6.35;;;5.22;;
75603;SDS011;64187;51.010;13.792;2023-05-07T13:48:32;5.22;;;4.30;;
75603;SDS011;64187;51.010;13.792;2023-05-07T13:53:31;9.18;;;5.68;;
75603;SDS011;64187;51.010;13.792;2023-05-07T13:58:30;4.53;;;3.85;;
75603;SDS011;64187;51.010;13.792;2023-05-07T14:03:29;5.47;;;4.53;;
75603;SDS011;64187;51.010;13.792;2023-05-07T14:08:30;5.25;;;3.90;;
75603;SDS011;64187;51.010;13.792;2023-05-07T14:13:29;5.75;;;4.50;;
75603;SDS011;64187;51.010;13.792;2023-05-07T14:18:29;4.57;;;3.97;;
75603;SDS011;64187;51.010;13.792;2023-05-07T14:23:28;4.35;;;3.30;;
75603;SDS011;64187;51.010;13.792;2023-05-07T14:28:27;3.33;;;2.92;;
75603;SDS011;64187;51.010;13.792;2023-05-07T14:33:25;4.53;;;3.38;;
75603;SDS011;64187;51.010;13.792;2023-05-07T14:38:24;4.72;;;2.85;;
75603;SDS011;64187;51.010;13.792;2023-05-07T14:43:23;3.67;;;3.05;;
75603;SDS011;64187;51.010;13.792;2023-05-07T14:48:23;4.15;;;2.83;;
75603;SDS011;64187;51.010;13.792;2023-05-07T14:53:22;4.25;;;3.22;;
75603;SDS011;64187;51.010;13.792;2023-05-07T14:58:21;4.75;;;4.28;;
75603;SDS011;64187;51.010;13.792;2023-05-07T15:03:20;5.55;;;3.83;;
75603;SDS011;64187;51.010;13.792;2023-05-07T15:08:20;5.53;;;4.03;;
75603;SDS011;64187;51.010;13.792;2023-05-07T15:13:19;4.95;;;3.88;;
75603;SDS011;64187;51.010;13.792;2023-05-07T15:18:18;5.18;;;4.20;;
75603;SDS011;64187;51.010;13.792;2023-05-07T15:23:20;6.25;;;4.35;;
75603;SDS011;64187;51.010;13.792;2023-05-07T15:28:20;5.15;;;4.28;;
75603;SDS011;64187;51.010;13.792;2023-05-07T15:33:19;6.35;;;4.80;;
75603;SDS011;64187;51.010;13.792;2023-05-07T15:38:18;5.78;;;4.60;;
75603;SDS011;64187;51.010;13.792;2023-05-07T15:43:17;4.32;;;3.72;;
75603;SDS011;64187;51.010;13.792;2023-05-07T15:48:16;7.25;;;5.07;;
75603;SDS011;64187;51.010;13.792;2023-05-07T15:53:15;5.72;;;4.53;;
75603;SDS011;64187;51.010;13.792;2023-05-07T15:58:14;7.28;;;5.13;;
75603;SDS011;64187;51.010;13.792;2023-05-07T16:03:13;6.00;;;4.93;;
75603;SDS011;64187;51.010;13.792;2023-05-07T16:08:12;6.78;;;5.25;;
75603;SDS011;64187;51.010;13.792;2023-05-07T16:13:11;6.15;;;4.78;;
75603;SDS011;64187;51.010;13.792;2023-05-07T16:18:10;5.35;;;4.70;;
75603;SDS011;64187;51.010;13.792;2023-05-07T16:23:13;6.03;;;5.28;;
75603;SDS011;64187;51.010;13.792;2023-05-07T16:28:12;8.93;;;5.40;;
75603;SDS011;64187;51.010;13.792;2023-05-07T16:33:11;6.93;;;5.43;;
75603;SDS011;64187;51.010;13.792;2023-05-07T16:38:10;7.88;;;5.05;;
75603;SDS011;64187;51.010;13.792;2023-05-07T16:43:09;5.95;;;5.18;;
75603;SDS011;64187;51.010;13.792;2023-05-07T16:48:08;6.88;;;4.88;;
75603;SDS011;64187;51.010;13.792;2023-05-07T16:53:08;6.15;;;5.20;;
75603;SDS011;64187;51.010;13.792;2023-05-07T16:58:07;7.25;;;5.25;;
75603;SDS011;64187;51.010;13.792;2023-05-07T17:03:07;7.30;;;4.95;;
75603;SDS011;64187;51.010;13.792;2023-05-07T17:08:06;7.38;;;5.45;;
75603;SDS011;64187;51.010;13.792;2023-05-07T17:13:04;6.55;;;4.82;;
75603;SDS011;64187;51.010;13.792;2023-05-07T17:18:04;6.90;;;4.85;;
75603;SDS011;64187;51.010;13.792;2023-05-07T17:23:03;7.75;;;5.72;;
75603;SDS011;64187;51.010;13.792;2023-05-07T17:28:02;6.32;;;5.15;;
75603;SDS011;64187;51.010;13.792;2023-05-07T17:33:01;7.03;;;5.18;;
75603;SDS011;64187;51.010;13.792;2023-05-07T17:38:17;7.45;;;5.20;;
75603;SDS011;64187;51.010;13.792;2023-05-07T17:43:16;5.45;;;4.60;;
75603;SDS011;64187;51.010;13.792;2023-05-07T17:48:15;7.40;;;5.38;;
75603;SDS011;64187;51.010;13.792;2023-05-07T17:53:15;6.07;;;4.80;;
75603;SDS011;64187;51.010;13.792;2023-05-07T17:58:14;5.95;;;4.45;;
75603;SDS011;64187;51.010;13.792;2023-05-07T18:03:12;6.32;;;5.03;;
75603;SDS011;64187;51.010;13.792;2023-05-07T18:08:11;5.63;;;5.03;;
75603;SDS011;64187;51.010;13.792;2023-05-07T18:13:10;6.90;;;5.70;;
75603;SDS011;64187;51.010;13.792;2023-05-07T18:18:09;5.85;;;4.93;;
75603;SDS011;64187;51.010;13.792;2023-05-07T18:23:09;6.53;;;5.05;;
75603;SDS011;64187;51.010;13.792;2023-05-07T18:28:08;6.03;;;5.22;;
75603;SDS011;64187;51.010;13.792;2023-05-07T18:33:07;5.25;;;4.63;;
75603;SDS011;64187;51.010;13.792;2023-05-07T18:38:06;7.15;;;5.70;;
75603;SDS011;64187;51.010;13.792;2023-05-07T18:43:04;8.50;;;5.55;;
75603;SDS011;64187;51.010;13.792;2023-05-07T18:48:04;7.80;;;5.50;;
75603;SDS011;64187;51.010;13.792;2023-05-07T18:53:04;8.88;;;4.97;;
75603;SDS011;64187;51.010;13.792;2023-05-07T18:58:03;7.50;;;5.38;;
75603;SDS011;64187;51.010;13.792;2023-05-07T19:03:02;6.15;;;4.95;;
75603;SDS011;64187;51.010;13.792;2023-05-07T19:08:01;6.13;;;5.20;;
75603;SDS011;64187;51.010;13.792;2023-05-07T19:13:00;6.07;;;5.18;;
75603;SDS011;64187;51.010;13.792;2023-05-07T19:17:59;9.32;;;5.72;;
75603;SDS011;64187;51.010;13.792;2023-05-07T19:22:58;7.45;;;4.85;;
75603;SDS011;64187;51.010;13.792;2023-05-07T19:27:57;7.13;;;5.38;;
75603;SDS011;64187;51.010;13.792;2023-05-07T19:32:57;8.55;;;6.03;;
75603;SDS011;64187;51.010;13.792;2023-05-07T19:37:57;7.53;;;6.13;;
75603;SDS011;64187;51.010;13.792;2023-05-07T19:42:56;9.20;;;5.95;;
75603;SDS011;64187;51.010;13.792;2023-05-07T19:47:55;7.18;;;5.88;;
75603;SDS011;64187;51.010;13.792;2023-05-07T19:52:54;9.75;;;6.50;;
75603;SDS011;64187;51.010;13.792;2023-05-07T19:57:53;8.02;;;5.80;;
75603;SDS011;64187;51.010;13.792;2023-05-07T20:02:52;8.05;;;6.30;;
75603;SDS011;64187;51.010;13.792;2023-05-07T20:07:51;6.93;;;5.95;;
75603;SDS011;64187;51.010;13.792;2023-05-07T20:12:49;8.95;;;6.25;;
75603;SDS011;64187;51.010;13.792;2023-05-07T20:17:48;9.98;;;6.90;;
75603;SDS011;64187;51.010;13.792;2023-05-07T20:22:47;7.35;;;5.43;;
75603;SDS011;64187;51.010;13.792;2023-05-07T20:27:46;8.05;;;5.80;;
75603;SDS011;64187;51.010;13.792;2023-05-07T20:32:45;8.95;;;6.25;;
75603;SDS011;64187;51.010;13.792;2023-05-07T20:37:44;7.47;;;5.75;;
75603;SDS011;64187;51.010;13.792;2023-05-07T20:42:43;6.10;;;5.25;;
75603;SDS011;64187;51.010;13.792;2023-05-07T20:47:42;7.20;;;5.20;;
75603;SDS011;64187;51.010;13.792;2023-05-07T20:52:41;6.38;;;5.10;;
75603;SDS011;64187;51.010;13.792;2023-05-07T20:57:40;6.95;;;5.00;;
75603;SDS011;64187;51.010;13.792;2023-05-07T21:02:38;6.82;;;4.35;;
75603;SDS011;64187;51.010;13.792;2023-05-07T21:07:37;7.68;;;4.78;;
75603;SDS011;64187;51.010;13.792;2023-05-07T21:12:36;5.32;;;4.38;;
75603;SDS011;64187;51.010;13.792;2023-05-07T21:17:38;6.00;;;4.13;;
75603;SDS011;64187;51.010;13.792;2023-05-07T21:22:37;6.70;;;4.97;;
75603;SDS011;64187;51.010;13.792;2023-05-07T21:27:36;6.68;;;4.25;;
75603;SDS011;64187;51.010;13.792;2023-05-07T21:32:35;5.40;;;4.00;;
75603;SDS011;64187;51.010;13.792;2023-05-07T21:37:34;5.78;;;4.25;;
75603;SDS011;64187;51.010;13.792;2023-05-07T21:42:33;5.93;;;4.20;;
75603;SDS011;64187;51.010;13.792;2023-05-07T21:47:35;6.60;;;4.82;;
75603;SDS011;64187;51.010;13.792;2023-05-07T21:52:34;6.63;;;4.90;;
75603;SDS011;64187;51.010;13.792;2023-05-07T21:57:33;6.15;;;3.92;;
75603;SDS011;64187;51.010;13.792;2023-05-07T22:02:33;7.20;;;4.13;;
75603;SDS011;64187;51.010;13.792;2023-05-07T22:07:32;6.20;;;4.22;;
75603;SDS011;64187;51.010;13.792;2023-05-07T22:12:31;7.50;;;4.95;;
75603;SDS011;64187;51.010;13.792;2023-05-07T22:17:30;7.35;;;4.43;;
75603;SDS011;64187;51.010;13.792;2023-05-07T22:22:29;7.18;;;4.85;;
75603;SDS011;64187;51.010;13.792;2023-05-07T22:27:28;5.68;;;4.57;;
75603;SDS011;64187;51.010;13.792;2023-05-07T22:32:28;6.05;;;4.57;;
75603;SDS011;64187;51.010;13.792;2023-05-07T22:37:27;5.60;;;4.45;;
75603;SDS011;64187;51.010;13.792;2023-05-07T22:42:26;6.07;;;4.50;;
75603;SDS011;64187;51.010;13.792;2023-05-07T22:47:27;5.55;;;4.15;;
75603;SDS011;64187;51.010;13.792;2023-05-07T22:52:28;5.57;;;4.68;;
75603;SDS011;64187;51.010;13.792;2023-05-07T22:57:27;9.77;;;4.72;;
75603;SDS011;64187;51.010;13.792;2023-05-07T23:02:26;6.82;;;4.35;;
75603;SDS011;64187;51.010;13.792;2023-05-07T23:07:26;7.75;;;5.32;;
75603;SDS011;64187;51.010;13.792;2023-05-07T23:12:25;5.53;;;4.35;;
75603;SDS011;64187;51.010;13.792;2023-05-07T23:17:24;7.18;;;4.32;;
75603;SDS011;64187;51.010;13.792;2023-05-07T23:22:23;7.68;;;5.07;;
75603;SDS011;64187;51.010;13.792;2023-05-07T23:27:22;7.47;;;4.60;;
75603;SDS011;64187;51.010;13.792;2023-05-07T23:32:21;7.53;;;4.78;;
75603;SDS011;64187;51.010;13.792;2023-05-07T23:37:20;5.47;;;4.05;;
75603;SDS011;64187;51.010;13.792;2023-05-07T23:42:19;7.20;;;5.20;;
75603;SDS011;64187;51.010;13.792;2023-05-07T23:47:18;6.30;;;4.75;;
75603;SDS011;64187;51.010;13.792;2023-05-07T23:52:18;6.45;;;4.90;;
75603;SDS011;64187;51.010;13.792;2023-05-07T23:57:18;6.53;;;4.93;;
